Time;durP1;ratioP1;P1;durP2;ratioP2;P2;SDS_P1;SDS_P2;PMS_P1;PMS_P2;Temp;Humidity;BMP_temperature;BMP_pressure;BME280_temperature;BME280_humidity;BME280_pressure;Samples;Min_cycle;Max_cycle;Signal;HPM_P1;HPM_P2
2022/01/15 00:02:14;;;;;;;18.15;10.00;;;6.00;99.90;;;;;;5030905;28;20052;-73
2022/01/15 00:05:18;;;;;;;19.60;10.20;;;5.90;99.90;;;;;;5030428;28;20049;-73
2022/01/15 00:08:23;;;;;;;14.95;9.45;;;5.80;99.90;;;;;;5030079;28;20380;-73
2022/01/15 00:11:27;;;;;;;20.92;11.40;;;5.70;99.90;;;;;;5030688;28;20044;-72
2022/01/15 00:14:37;;;;;;;25.83;13.52;;;5.50;99.90;;;;;;5030369;28;20384;-72
2022/01/15 00:20:48;;;;;;;34.00;16.13;;;5.10;99.90;;;;;;5030447;28;20052;-72
2022/01/15 00:23:53;;;;;;;42.95;19.88;;;4.70;99.90;;;;;;5030315;28;20048;-72
2022/01/15 00:26:57;;;;;;;48.00;22.02;;;4.50;99.90;;;;;;5030143;28;20048;-72
2022/01/15 00:30:03;;;;;;;36.05;20.75;;;4.30;99.90;;;;;;5029698;28;20056;-72
2022/01/15 00:33:07;;;;;;;36.58;19.50;;;4.20;99.90;;;;;;5029574;28;20036;-73
2022/01/15 00:36:12;;;;;;;40.30;21.30;;;4.20;99.90;;;;;;5030315;28;20517;-73
2022/01/15 00:39:15;;;;;;;44.72;21.92;;;4.20;99.90;;;;;;5029656;28;20053;-73
2022/01/15 00:42:20;;;;;;;36.25;19.80;;;4.20;99.90;;;;;;5030503;28;20044;-72
2022/01/15 00:45:25;;;;;;;40.00;20.45;;;4.20;99.90;;;;;;5029654;28;20056;-72
2022/01/15 00:48:31;;;;;;;36.33;18.75;;;4.20;99.90;;;;;;5029637;28;20061;-72
2022/01/15 00:51:35;;;;;;;32.17;18.80;;;4.20;99.90;;;;;;5029684;28;20056;-72
2022/01/15 00:54:40;;;;;;;39.60;20.90;;;4.20;99.90;;;;;;5029991;28;20400;-72
2022/01/15 00:57:47;;;;;;;48.38;22.70;;;4.10;99.90;;;;;;5030716;28;20045;-73
2022/01/15 01:00:51;;;;;;;41.20;21.33;;;4.00;99.90;;;;;;5033487;28;20040;-72
2022/01/15 01:03:54;;;;;;;48.42;26.30;;;4.00;99.90;;;;;;5033350;28;20040;-72
2022/01/15 01:06:59;;;;;;;53.13;26.92;;;3.90;99.90;;;;;;5034066;28;20064;-72
2022/01/15 01:13:42;;;;;;;48.13;24.30;;;3.80;99.90;;;;;;5033954;28;20049;-72
2022/01/15 01:20:10;;;;;;;48.90;24.45;;;3.70;99.90;;;;;;5033407;28;20044;-72
2022/01/15 01:23:15;;;;;;;55.78;26.92;;;3.70;99.90;;;;;;5033654;28;20056;-72
2022/01/15 01:26:27;;;;;;;51.53;25.05;;;3.60;99.90;;;;;;5033052;28;20312;-72
2022/01/15 01:33:17;;;;;;;51.10;25.67;;;3.50;99.90;;;;;;5026319;28;20052;-72
2022/01/15 01:36:43;;;;;;;56.30;26.45;;;3.50;99.90;;;;;;5033830;28;20544;-72
2022/01/15 01:40:07;;;;;;;45.97;23.00;;;3.50;99.90;;;;;;5032929;28;20041;-72
2022/01/15 01:49:28;;;;;;;47.10;24.42;;;3.50;99.90;;;;;;5032629;28;20045;-72
2022/01/15 01:52:32;;;;;;;44.20;24.23;;;3.50;99.90;;;;;;5033114;28;20404;-72
2022/01/15 01:55:36;;;;;;;39.35;22.85;;;3.50;99.90;;;;;;5032785;28;20052;-72
2022/01/15 01:58:40;;;;;;;43.67;23.25;;;3.40;99.90;;;;;;5032152;28;20048;-72
2022/01/15 02:01:44;;;;;;;47.05;24.95;;;3.40;99.90;;;;;;5032374;28;20045;-72
2022/01/15 02:04:48;;;;;;;41.65;22.65;;;3.40;99.90;;;;;;5032951;28;20324;-72
2022/01/15 02:07:53;;;;;;;39.70;21.27;;;3.50;99.90;;;;;;5032375;28;20041;-72
2022/01/15 02:10:58;;;;;;;44.55;23.63;;;3.40;99.90;;;;;;5031673;28;20045;-72
2022/01/15 02:14:02;;;;;;;42.55;23.45;;;3.40;99.90;;;;;;5032643;28;20043;-72
2022/01/15 02:17:07;;;;;;;41.75;22.45;;;3.30;99.90;;;;;;5032318;28;20048;-72
2022/01/15 02:23:35;;;;;;;43.17;23.50;;;3.30;99.90;;;;;;5032569;28;20068;-72
2022/01/15 02:26:39;;;;;;;43.30;24.67;;;3.30;99.90;;;;;;5032137;28;20048;-72
2022/01/15 02:29:45;;;;;;;46.90;25.65;;;3.30;99.90;;;;;;5031586;28;20040;-72
2022/01/15 02:32:49;;;;;;;43.97;24.27;;;3.30;99.90;;;;;;5032533;28;20052;-73
2022/01/15 02:35:54;;;;;;;38.83;22.25;;;3.30;99.90;;;;;;5032750;28;20044;-72
2022/01/15 02:38:59;;;;;;;39.97;22.85;;;3.30;99.90;;;;;;5031749;28;20037;-73
2022/01/15 02:42:03;;;;;;;48.85;23.33;;;3.20;99.90;;;;;;5031989;28;20041;-72
2022/01/15 02:45:08;;;;;;;40.47;22.48;;;3.20;99.90;;;;;;5032174;28;20384;-72
2022/01/15 02:48:15;;;;;;;40.10;22.65;;;3.20;99.90;;;;;;5031722;28;20052;-72
2022/01/15 02:51:22;;;;;;;37.00;21.80;;;3.10;99.90;;;;;;5031761;28;20439;-72
2022/01/15 02:54:26;;;;;;;42.15;24.85;;;3.00;99.90;;;;;;5032133;28;20040;-72
2022/01/15 02:57:30;;;;;;;48.72;24.05;;;3.00;99.90;;;;;;5031760;28;20057;-73
2022/01/15 03:00:34;;;;;;;41.28;22.85;;;3.00;99.90;;;;;;5031609;28;20044;-72
2022/01/15 03:03:38;;;;;;;43.78;22.17;;;3.00;99.90;;;;;;5031574;28;20048;-72
2022/01/15 03:06:42;;;;;;;37.13;21.10;;;3.00;99.90;;;;;;5031528;28;20495;-72
2022/01/15 03:09:46;;;;;;;40.53;21.70;;;3.00;99.90;;;;;;5031315;28;20472;-72
2022/01/15 03:12:54;;;;;;;39.03;21.85;;;3.00;99.90;;;;;;5031560;28;20071;-72
2022/01/15 03:15:58;;;;;;;37.67;20.67;;;3.00;99.90;;;;;;5031305;28;20064;-72
2022/01/15 03:19:03;;;;;;;39.60;21.88;;;3.00;99.90;;;;;;5031003;28;20510;-72
2022/01/15 03:22:07;;;;;;;33.65;18.02;;;3.00;99.90;;;;;;5029465;28;20337;-72
2022/01/15 03:25:12;;;;;;;29.10;17.48;;;2.90;99.90;;;;;;5031654;28;20408;-72
2022/01/15 03:28:16;;;;;;;33.28;16.55;;;2.90;99.90;;;;;;5031518;28;20594;-72
2022/01/15 03:31:20;;;;;;;39.08;18.55;;;2.80;99.90;;;;;;5031147;28;20040;-73
2022/01/15 03:34:24;;;;;;;39.63;18.60;;;2.80;99.90;;;;;;5031584;28;20037;-72
2022/01/15 03:37:28;;;;;;;30.75;17.60;;;2.80;99.90;;;;;;5031356;28;20056;-72
2022/01/15 03:40:33;;;;;;;27.25;17.35;;;2.80;99.90;;;;;;5031430;28;20048;-72
2022/01/15 03:43:40;;;;;;;36.58;18.25;;;2.80;99.90;;;;;;5030891;28;20463;-72
2022/01/15 03:46:46;;;;;;;32.63;17.60;;;2.80;99.90;;;;;;5030699;28;20056;-72
2022/01/15 03:49:49;;;;;;;26.33;14.32;;;2.80;99.90;;;;;;5031200;28;20475;-72
2022/01/15 03:52:54;;;;;;;33.63;19.30;;;2.90;99.90;;;;;;5031187;28;20617;-72
2022/01/15 03:55:59;;;;;;;35.28;19.08;;;2.70;99.90;;;;;;5030167;28;20389;-73
2022/01/15 03:59:03;;;;;;;31.70;18.30;;;2.60;99.90;;;;;;5031325;28;20040;-72
2022/01/15 04:02:08;;;;;;;29.38;17.25;;;2.50;99.90;;;;;;5030769;28;20385;-72
2022/01/15 04:05:13;;;;;;;30.45;18.17;;;2.50;99.90;;;;;;5031049;28;20392;-73
2022/01/15 04:08:18;;;;;;;40.15;21.02;;;2.50;99.90;;;;;;5030193;28;20041;-72
2022/01/15 04:11:22;;;;;;;39.15;21.45;;;2.40;99.90;;;;;;5030720;28;20052;-73
2022/01/15 04:14:26;;;;;;;46.35;23.00;;;2.30;99.90;;;;;;5030570;28;20036;-72
2022/01/15 04:17:30;;;;;;;40.08;22.52;;;2.20;99.90;;;;;;5030215;28;20507;-72
2022/01/15 04:20:34;;;;;;;41.88;21.70;;;2.10;99.90;;;;;;5030574;28;20400;-72
2022/01/15 04:23:38;;;;;;;43.92;21.13;;;2.00;99.90;;;;;;5030755;28;20056;-72
2022/01/15 04:26:42;;;;;;;38.20;20.60;;;1.90;99.90;;;;;;5029409;28;20040;-72
2022/01/15 04:29:46;;;;;;;39.97;20.95;;;1.90;99.90;;;;;;5030538;28;20053;-72
2022/01/15 04:32:50;;;;;;;39.25;19.98;;;1.90;99.90;;;;;;5030408;28;20033;-72
2022/01/15 04:35:54;;;;;;;36.97;20.23;;;1.80;99.90;;;;;;5030943;28;20049;-72
2022/01/15 04:38:58;;;;;;;36.35;21.70;;;1.90;99.90;;;;;;5030400;28;20594;-72
2022/01/15 04:42:02;;;;;;;33.65;20.90;;;1.90;99.90;;;;;;5029696;28;20044;-72
2022/01/15 04:45:07;;;;;;;38.75;22.58;;;1.80;99.90;;;;;;5030242;28;20056;-72
2022/01/15 04:48:12;;;;;;;45.47;23.08;;;1.90;99.90;;;;;;5030179;28;20121;-72
2022/01/15 04:51:19;;;;;;;42.28;23.90;;;2.00;99.90;;;;;;5030432;28;20033;-72
2022/01/15 04:54:24;;;;;;;38.65;21.85;;;2.00;99.90;;;;;;5030361;28;20056;-72
2022/01/15 04:57:28;;;;;;;40.28;22.10;;;1.90;99.90;;;;;;5030532;28;20056;-72
2022/01/15 05:00:34;;;;;;;40.35;21.80;;;1.80;99.90;;;;;;5030246;28;20503;-72
2022/01/15 05:03:38;;;;;;;41.40;22.02;;;1.80;99.90;;;;;;5029565;28;20050;-72
2022/01/15 05:06:43;;;;;;;35.45;19.42;;;1.80;99.90;;;;;;5030056;28;20053;-72
2022/01/15 05:09:47;;;;;;;36.08;22.00;;;1.80;99.90;;;;;;5029958;28;20044;-72
2022/01/15 05:12:54;;;;;;;38.80;21.88;;;1.70;99.90;;;;;;5030272;28;20044;-72
2022/01/15 05:15:58;;;;;;;38.90;21.48;;;1.80;99.90;;;;;;5030330;28;20044;-72
2022/01/15 05:19:03;;;;;;;41.67;21.88;;;1.70;99.90;;;;;;5029742;28;20040;-72
2022/01/15 05:22:07;;;;;;;39.10;21.55;;;1.60;99.90;;;;;;5030098;28;20516;-72
2022/01/15 05:25:13;;;;;;;36.08;21.40;;;1.60;99.90;;;;;;5030102;28;20048;-72
2022/01/15 05:28:17;;;;;;;37.67;20.58;;;1.60;99.90;;;;;;5029643;28;20048;-72
2022/01/15 05:31:21;;;;;;;41.97;22.58;;;1.50;99.90;;;;;;5029540;28;20068;-72
2022/01/15 05:34:25;;;;;;;47.28;24.90;;;1.50;99.90;;;;;;5029884;28;20392;-72
2022/01/15 05:37:29;;;;;;;42.58;23.77;;;1.30;99.90;;;;;;5030256;28;20396;-72
2022/01/15 05:40:33;;;;;;;35.40;20.40;;;1.30;99.90;;;;;;5030363;28;20052;-72
2022/01/15 05:43:38;;;;;;;46.17;23.05;;;1.20;99.90;;;;;;5029593;28;20052;-72
2022/01/15 05:46:42;;;;;;;43.05;24.65;;;1.10;99.90;;;;;;5033475;28;20515;-72
2022/01/15 05:49:47;;;;;;;52.90;24.70;;;1.10;99.90;;;;;;5033236;28;20037;-72
2022/01/15 05:52:52;;;;;;;47.60;24.73;;;0.90;99.90;;;;;;5033442;28;20057;-72
2022/01/15 05:55:56;;;;;;;42.22;23.70;;;0.80;99.90;;;;;;5033222;28;20044;-72
2022/01/15 05:59:01;;;;;;;38.72;23.02;;;0.80;99.90;;;;;;5032826;28;20503;-72
2022/01/15 06:02:05;;;;;;;38.22;22.38;;;0.70;99.90;;;;;;5032825;28;20048;-72
2022/01/15 06:05:09;;;;;;;44.47;24.27;;;0.70;99.90;;;;;;5033081;28;20052;-72
2022/01/15 06:08:13;;;;;;;36.53;22.70;;;0.60;99.90;;;;;;5032608;28;20036;-72
2022/01/15 06:11:18;;;;;;;43.70;24.25;;;0.60;99.90;;;;;;5033062;28;20072;-72
2022/01/15 06:14:22;;;;;;;43.05;23.40;;;0.60;99.90;;;;;;5032088;28;20061;-72
2022/01/15 06:17:26;;;;;;;43.35;24.30;;;0.60;99.90;;;;;;5032942;28;20048;-72
2022/01/15 06:20:31;;;;;;;40.60;25.05;;;0.60;99.90;;;;;;5032587;28;20384;-72
2022/01/15 06:23:35;;;;;;;43.75;24.85;;;0.70;99.90;;;;;;5032870;28;20048;-72
2022/01/15 06:26:40;;;;;;;47.42;26.13;;;0.70;99.90;;;;;;5032553;28;20404;-72
2022/01/15 06:29:43;;;;;;;41.72;24.08;;;0.70;99.90;;;;;;5032527;28;20033;-72
2022/01/15 06:32:47;;;;;;;44.63;25.15;;;0.80;99.90;;;;;;5032426;28;20388;-72
2022/01/15 06:35:52;;;;;;;42.97;25.80;;;0.80;99.90;;;;;;5032258;28;20048;-72
2022/01/15 06:38:56;;;;;;;43.45;25.73;;;0.90;99.90;;;;;;5032284;28;20049;-72
2022/01/15 06:42:01;;;;;;;45.05;24.00;;;0.90;99.90;;;;;;5032455;28;20051;-72
2022/01/15 06:45:07;;;;;;;48.83;24.90;;;0.90;99.90;;;;;;5032112;28;20538;-72
2022/01/15 06:48:11;;;;;;;47.10;26.73;;;0.90;99.90;;;;;;5031791;28;20052;-72
2022/01/15 06:51:16;;;;;;;50.60;26.27;;;0.90;99.90;;;;;;5031709;28;20045;-72
2022/01/15 06:54:20;;;;;;;47.65;27.27;;;0.90;99.90;;;;;;5032251;28;20052;-72
2022/01/15 06:57:24;;;;;;;48.22;25.63;;;1.00;99.90;;;;;;5031759;28;20060;-72
2022/01/15 07:00:28;;;;;;;45.88;25.67;;;1.00;99.90;;;;;;5031646;28;20499;-72
2022/01/15 07:03:33;;;;;;;45.88;25.67;;;1.40;99.90;;;;;;5031932;28;20048;-72
2022/01/15 07:06:37;;;;;;;42.13;26.58;;;1.10;99.90;;;;;;5032034;28;20053;-72
2022/01/15 07:09:41;;;;;;;45.38;24.48;;;1.20;99.90;;;;;;5030998;28;20040;-72
2022/01/15 07:12:45;;;;;;;44.15;24.55;;;1.20;99.90;;;;;;5032157;28;20053;-72
2022/01/15 07:15:49;;;;;;;41.42;24.17;;;1.30;99.90;;;;;;5031731;28;20396;-72
2022/01/15 07:18:53;;;;;;;42.83;22.75;;;2.50;99.90;;;;;;5031884;28;20053;-73
2022/01/15 07:21:58;;;;;;;42.85;21.13;;;5.30;99.90;;;;;;5031944;28;20428;-73
2022/01/15 07:25:02;;;;;;;33.90;18.50;;;8.10;99.90;;;;;;5031086;28;20044;-73
2022/01/15 07:28:06;;;;;;;28.73;17.02;;;10.50;99.90;;;;;;5030973;28;20060;-73
2022/01/15 07:31:10;;;;;;;25.35;16.60;;;12.40;99.90;;;;;;5031318;28;20045;-73
2022/01/15 07:34:15;;;;;;;24.00;15.88;;;14.00;99.90;;;;;;5031351;28;20044;-73
2022/01/15 07:37:19;;;;;;;24.30;16.13;;;15.50;96.90;;;;;;5031247;28;20044;-72
2022/01/15 07:40:23;;;;;;;22.85;15.50;;;16.30;94.60;;;;;;5031487;28;20503;-72
2022/01/15 07:43:27;;;;;;;26.30;16.77;;;17.30;92.80;;;;;;5030945;28;20404;-72
2022/01/15 07:46:32;;;;;;;24.73;15.30;;;18.00;90.30;;;;;;5030909;28;20068;-72
2022/01/15 07:49:36;;;;;;;29.15;19.55;;;18.80;88.10;;;;;;5031207;28;20079;-72
2022/01/15 07:52:41;;;;;;;25.70;16.27;;;19.40;85.00;;;;;;5030537;28;20048;-72
2022/01/15 07:55:45;;;;;;;19.75;14.05;;;20.00;82.90;;;;;;5031051;28;20045;-72
2022/01/15 07:58:49;;;;;;;17.33;11.85;;;21.10;79.00;;;;;;5030840;28;20044;-72
2022/01/15 08:01:53;;;;;;;15.85;11.30;;;21.50;76.40;;;;;;5030131;28;20045;-72
2022/01/15 08:04:57;;;;;;;16.65;12.13;;;22.00;75.80;;;;;;5030737;28;20482;-72
2022/01/15 08:08:01;;;;;;;15.00;10.77;;;22.10;74.70;;;;;;5029965;28;20416;-72
2022/01/15 08:11:07;;;;;;;21.52;11.05;;;22.80;72.50;;;;;;5030919;28;20044;-71
2022/01/15 08:14:11;;;;;;;17.88;13.07;;;23.30;70.30;;;;;;5031201;28;20040;-72
2022/01/15 08:17:15;;;;;;;18.00;13.00;;;24.10;68.30;;;;;;5030324;28;20093;-71
2022/01/15 08:20:19;;;;;;;16.85;12.20;;;24.60;66.00;;;;;;5030581;28;20065;-72
2022/01/15 08:23:23;;;;;;;17.13;12.13;;;24.80;64.40;;;;;;5030832;28;20045;-72
2022/01/15 08:26:28;;;;;;;18.23;13.40;;;24.80;63.50;;;;;;5030467;28;20053;-72
2022/01/15 08:29:32;;;;;;;20.35;15.43;;;24.80;62.70;;;;;;5030635;28;20064;-74
2022/01/15 08:32:36;;;;;;;21.98;16.45;;;23.90;62.70;;;;;;5030470;28;20420;-74
2022/01/15 08:35:41;;;;;;;14.90;11.82;;;24.70;62.20;;;;;;5030628;28;20053;-73
2022/01/15 08:38:45;;;;;;;16.95;11.55;;;24.40;62.50;;;;;;5030566;28;20049;-73
2022/01/15 08:41:49;;;;;;;16.75;12.27;;;24.70;61.60;;;;;;5030927;28;20045;-74
2022/01/15 08:44:54;;;;;;;18.83;12.88;;;23.90;61.90;;;;;;5030579;28;20507;-74
2022/01/15 08:47:58;;;;;;;17.13;12.43;;;25.40;60.60;;;;;;5029914;28;20052;-75
2022/01/15 08:51:02;;;;;;;16.60;13.10;;;25.70;60.20;;;;;;5030378;28;20048;-74
2022/01/15 08:54:07;;;;;;;15.75;11.90;;;26.90;60.50;;;;;;5030036;28;20413;-74
2022/01/15 08:57:12;;;;;;;17.75;12.20;;;28.10;59.10;;;;;;5030372;28;20064;-74
2022/01/15 09:00:18;;;;;;;15.63;12.55;;;28.60;58.00;;;;;;5029921;28;20053;-75
2022/01/15 09:03:23;;;;;;;15.05;11.38;;;29.00;57.10;;;;;;5030363;28;20045;-72
2022/01/15 09:06:29;;;;;;;15.23;11.20;;;29.80;56.00;;;;;;5030155;28;20040;-72
2022/01/15 09:09:33;;;;;;;14.18;11.52;;;30.70;55.20;;;;;;5030287;28;20056;-72
2022/01/15 09:12:37;;;;;;;15.40;10.70;;;31.20;54.10;;;;;;5030211;28;20503;-72
2022/01/15 09:15:41;;;;;;;18.80;13.25;;;30.70;53.50;;;;;;5030213;28;20045;-72
2022/01/15 09:18:45;;;;;;;13.00;10.93;;;30.10;53.40;;;;;;5029884;28;20053;-72
2022/01/15 09:21:49;;;;;;;14.20;11.52;;;30.20;53.50;;;;;;5034064;28;20384;-72
2022/01/15 09:24:53;;;;;;;15.27;12.15;;;30.50;53.20;;;;;;5034343;28;20052;-72
2022/01/15 09:31:19;;;;;;;15.07;11.23;;;31.30;52.70;;;;;;5033589;28;20048;-73
2022/01/15 09:34:24;;;;;;;18.20;11.60;;;31.50;52.40;;;;;;5032747;28;20048;-72
2022/01/15 09:37:28;;;;;;;13.63;11.40;;;31.80;51.50;;;;;;5033208;28;20048;-73
2022/01/15 09:40:32;;;;;;;15.32;11.30;;;32.90;52.10;;;;;;5033559;28;20052;-72
2022/01/15 09:43:39;;;;;;;14.65;12.30;;;32.90;50.80;;;;;;5033667;28;20052;-73
2022/01/15 09:46:45;;;;;;;13.75;11.68;;;31.90;50.60;;;;;;5033363;28;20503;-73
2022/01/15 09:49:51;;;;;;;16.27;13.27;;;29.30;51.40;;;;;;5033138;28;20052;-72
2022/01/15 09:52:55;;;;;;;18.75;14.23;;;24.20;52.70;;;;;;5033316;28;20048;-72
2022/01/15 09:56:00;;;;;;;17.08;14.13;;;22.20;58.20;;;;;;5033743;28;20045;-72
2022/01/15 09:59:04;;;;;;;19.00;13.65;;;24.10;56.60;;;;;;5032981;28;20820;-72
2022/01/15 10:02:08;;;;;;;18.50;13.85;;;24.80;56.50;;;;;;5032923;28;20491;-72
2022/01/15 10:05:13;;;;;;;18.83;13.13;;;26.00;54.90;;;;;;5033149;28;20064;-72
2022/01/15 10:08:20;;;;;;;18.33;12.50;;;28.00;54.40;;;;;;5032751;28;20041;-72
2022/01/15 10:11:44;;;;;;;17.23;12.02;;;28.30;53.70;;;;;;5032954;28;20400;-72
2022/01/15 10:14:48;;;;;;;17.42;12.88;;;29.30;53.20;;;;;;5032988;28;20052;-72
2022/01/15 10:17:53;;;;;;;14.02;11.85;;;29.50;51.90;;;;;;5032296;28;20044;-72
2022/01/15 10:21:11;;;;;;;17.75;14.00;;;28.80;52.40;;;;;;5032995;28;20048;-72
2022/01/15 10:24:14;;;;;;;16.20;12.82;;;25.60;54.40;;;;;;5033132;28;20381;-72
2022/01/15 10:27:21;;;;;;;20.23;13.07;;;26.80;54.90;;;;;;5032586;28;20048;-72
2022/01/15 10:30:29;;;;;;;17.23;12.70;;;25.10;55.50;;;;;;5032108;28;20303;-72
2022/01/15 10:33:33;;;;;;;19.75;11.30;;;27.60;54.90;;;;;;5033123;28;20326;-73
2022/01/15 10:36:32;;;;;;;12.38;10.05;;;30.20;53.90;;;;;;5123220;27;20586;-58
2022/01/15 10:39:36;;;;;;;12.15;9.57;;;31.50;54.00;;;;;;5147899;27;20027;-57
2022/01/15 10:42:40;;;;;;;13.43;10.15;;;32.90;52.80;;;;;;5148379;27;20034;-57
2022/01/15 10:45:48;;;;;;;12.73;9.75;;;33.70;52.30;;;;;;5142654;27;20046;-58
2022/01/15 10:48:53;;;;;;;12.25;9.38;;;34.10;52.30;;;;;;5127188;28;20038;-59
2022/01/15 10:52:20;;;;;;;8.93;7.88;;;34.60;51.70;;;;;;5127593;28;20039;-59
2022/01/15 10:55:29;;;;;;;12.30;8.82;;;35.00;51.20;;;;;;5127448;28;20497;-57
2022/01/15 10:58:35;;;;;;;12.57;8.35;;;35.30;51.20;;;;;;5127134;28;20354;-59
2022/01/15 11:01:40;;;;;;;10.43;7.70;;;35.70;50.60;;;;;;5127625;28;20042;-59
2022/01/15 11:04:45;;;;;;;11.18;7.80;;;35.30;50.70;;;;;;5127345;28;20043;-58
2022/01/15 11:07:52;;;;;;;9.63;6.57;;;35.00;51.30;;;;;;5127166;28;20042;-58
2022/01/15 11:11:00;;;;;;;10.90;7.50;;;34.70;51.40;;;;;;5127516;28;20031;-57
2022/01/15 11:14:04;;;;;;;9.95;6.88;;;34.50;52.30;;;;;;5127323;28;20035;-59
2022/01/15 11:17:08;;;;;;;9.13;6.45;;;34.60;52.00;;;;;;5126800;28;20273;-60
2022/01/15 11:20:16;;;;;;;8.88;6.50;;;35.10;51.70;;;;;;5126899;28;20367;-59
2022/01/15 11:23:23;;;;;;;10.07;7.10;;;35.60;51.10;;;;;;5126855;28;20577;-58
2022/01/15 11:26:33;;;;;;;11.05;6.13;;;35.00;51.60;;;;;;5127357;28;20051;-59
2022/01/15 11:29:40;;;;;;;8.98;5.57;;;34.80;50.90;;;;;;5126805;28;20113;-56
2022/01/15 11:32:44;;;;;;;9.30;6.18;;;33.60;52.70;;;;;;5127198;28;20036;-59
2022/01/15 11:35:50;;;;;;;6.25;5.18;;;34.00;52.00;;;;;;5126602;28;20039;-58
2022/01/15 11:38:54;;;;;;;8.88;5.65;;;34.30;51.40;;;;;;5125901;28;20035;-58
2022/01/15 11:42:01;;;;;;;7.93;5.00;;;34.70;50.90;;;;;;5126761;28;20027;-59
2022/01/15 11:45:05;;;;;;;10.63;5.80;;;34.30;51.00;;;;;;5127133;28;20039;-57
2022/01/15 11:48:35;;;;;;;6.82;4.95;;;34.30;51.30;;;;;;5111815;28;20509;-61
2022/01/15 11:51:39;;;;;;;6.88;5.22;;;34.20;51.20;;;;;;5113180;28;20043;-57
2022/01/15 11:54:51;;;;;;;7.97;5.40;;;33.90;51.40;;;;;;5112772;28;20402;-58
2022/01/15 11:57:58;;;;;;;11.30;5.47;;;34.10;51.40;;;;;;5112828;28;20047;-61
2022/01/15 12:01:02;;;;;;;7.18;4.80;;;34.50;50.90;;;;;;5113111;28;20077;-60
2022/01/15 12:04:33;;;;;;;6.28;4.90;;;34.30;51.20;;;;;;5112446;28;20043;-59
2022/01/15 12:07:36;;;;;;;8.00;4.93;;;34.10;51.70;;;;;;5112865;28;20047;-60
2022/01/15 12:10:45;;;;;;;9.07;5.22;;;32.90;52.30;;;;;;5112661;28;20040;-60
2022/01/15 12:13:51;;;;;;;14.02;6.60;;;32.70;52.60;;;;;;5112481;28;20044;-59
2022/01/15 12:17:31;;;;;;;9.30;5.40;;;32.70;52.90;;;;;;5112590;28;20402;-60
2022/01/15 12:20:36;;;;;;;8.43;4.80;;;33.10;52.60;;;;;;5112468;28;20024;-60
2022/01/15 12:23:40;;;;;;;13.18;5.80;;;32.90;52.80;;;;;;5112777;28;20379;-60
2022/01/15 12:27:01;;;;;;;8.35;5.68;;;32.90;52.20;;;;;;5112335;28;20287;-59
2022/01/15 12:30:22;;;;;;;9.65;5.20;;;32.40;53.40;;;;;;5111119;28;20032;-59
2022/01/15 12:33:27;;;;;;;9.60;5.80;;;32.70;52.40;;;;;;5112138;28;20035;-59
2022/01/15 12:36:46;;;;;;;6.78;5.15;;;32.80;52.40;;;;;;5112182;28;20031;-57
2022/01/15 12:39:51;;;;;;;9.85;5.57;;;32.60;52.30;;;;;;5110902;28;20036;-58
2022/01/15 12:43:00;;;;;;;11.15;6.05;;;32.10;52.90;;;;;;5111930;28;20043;-59
2022/01/15 12:46:11;;;;;;;5.97;4.88;;;32.70;52.80;;;;;;5111846;28;20038;-59
2022/01/15 12:49:15;;;;;;;11.57;5.05;;;32.40;52.50;;;;;;5111128;28;20031;-56
2022/01/15 12:52:25;;;;;;;7.35;5.32;;;32.70;52.40;;;;;;5112151;28;20418;-59
2022/01/15 12:55:31;;;;;;;7.53;5.55;;;32.10;53.00;;;;;;5111509;28;20383;-58
2022/01/15 12:58:36;;;;;;;7.38;4.70;;;32.30;53.00;;;;;;5110269;28;20036;-58
2022/01/15 13:01:44;;;;;;;7.95;4.35;;;31.60;52.80;;;;;;5111888;28;20027;-58
2022/01/15 13:04:54;;;;;;;7.38;4.60;;;32.10;52.90;;;;;;5111612;28;20039;-58
2022/01/15 13:08:01;;;;;;;5.85;4.50;;;31.70;53.40;;;;;;5111761;28;20398;-59
2022/01/15 13:14:20;;;;;;;7.88;4.13;;;31.00;53.70;;;;;;5111417;28;20039;-58
2022/01/15 13:17:26;;;;;;;6.20;4.05;;;30.50;54.30;;;;;;5111670;28;20032;-59
2022/01/15 13:20:34;;;;;;;11.52;10.30;;;29.80;54.80;;;;;;5111020;28;20036;-58
2022/01/15 13:23:53;;;;;;;6.85;4.78;;;29.80;55.10;;;;;;5111458;28;20513;-58
2022/01/15 13:26:58;;;;;;;10.38;4.95;;;29.40;55.20;;;;;;5111011;28;20039;-58
2022/01/15 13:30:04;;;;;;;8.38;4.78;;;29.10;55.90;;;;;;5110400;28;20047;-59
2022/01/15 13:33:09;;;;;;;7.47;4.60;;;29.30;55.70;;;;;;5111352;28;20050;-58
2022/01/15 13:36:16;;;;;;;7.80;4.53;;;29.20;56.10;;;;;;5110793;28;20046;-58
2022/01/15 13:39:19;;;;;;;6.65;4.65;;;28.90;56.50;;;;;;5110295;28;20047;-58
2022/01/15 13:42:23;;;;;;;6.80;4.68;;;29.30;56.20;;;;;;5110774;28;20039;-58
2022/01/15 13:45:32;;;;;;;10.70;6.97;;;29.30;56.50;;;;;;5110873;28;20046;-58
2022/01/15 13:48:37;;;;;;;7.70;5.68;;;29.90;56.00;;;;;;5110268;28;20050;-57
2022/01/15 13:55:14;;;;;;;8.55;5.13;;;29.90;55.50;;;;;;5110574;28;20040;-58
2022/01/15 13:58:17;;;;;;;9.07;4.97;;;29.70;56.00;;;;;;5110076;28;20054;-58
2022/01/15 14:01:24;;;;;;;10.98;5.57;;;29.40;56.10;;;;;;5109600;28;20028;-57
2022/01/15 14:04:34;;;;;;;9.55;6.63;;;29.20;56.50;;;;;;5110622;28;20509;-58
2022/01/15 14:07:38;;;;;;;8.10;5.53;;;28.70;56.70;;;;;;5110243;28;20036;-58
2022/01/15 14:10:42;;;;;;;10.38;6.00;;;28.50;57.00;;;;;;5110182;28;20031;-58
2022/01/15 14:13:46;;;;;;;8.48;5.60;;;27.90;57.40;;;;;;5110487;28;20055;-57
2022/01/15 14:16:56;;;;;;;11.80;7.13;;;27.40;58.30;;;;;;5109913;28;20044;-58
2022/01/15 14:23:07;;;;;;;9.38;5.72;;;27.50;58.20;;;;;;5110197;28;20044;-58
2022/01/15 14:26:18;;;;;;;13.60;8.00;;;27.20;58.60;;;;;;5110140;28;20044;-58
2022/01/15 14:29:23;;;;;;;10.40;5.60;;;26.50;58.00;;;;;;5110097;28;20034;-60
2022/01/15 14:32:27;;;;;;;9.95;5.85;;;26.40;58.50;;;;;;5110287;28;20043;-58
2022/01/15 14:35:32;;;;;;;17.23;11.40;;;26.10;58.70;;;;;;5110227;28;20035;-57
2022/01/15 14:38:36;;;;;;;10.73;6.88;;;25.70;59.60;;;;;;5109494;28;20516;-57
2022/01/15 14:41:39;;;;;;;10.13;6.13;;;25.30;60.00;;;;;;5110192;28;20042;-56
2022/01/15 14:44:43;;;;;;;10.32;6.72;;;24.60;61.40;;;;;;5110220;28;20042;-55
2022/01/15 14:47:51;;;;;;;9.30;5.57;;;24.40;61.60;;;;;;5109748;28;20437;-55
2022/01/15 14:50:55;;;;;;;11.77;6.43;;;24.50;61.60;;;;;;5110118;28;20240;-57
2022/01/15 14:53:59;;;;;;;10.07;5.68;;;24.00;62.50;;;;;;5109809;28;20072;-59
2022/01/15 14:57:04;;;;;;;11.88;5.85;;;23.80;62.50;;;;;;5109644;28;20047;-57
2022/01/15 15:00:09;;;;;;;12.75;5.82;;;23.60;62.80;;;;;;5109063;28;20038;-58
2022/01/15 15:03:14;;;;;;;10.85;5.60;;;23.50;63.70;;;;;;5109482;28;20047;-59
2022/01/15 15:06:18;;;;;;;9.98;5.82;;;23.40;63.00;;;;;;5109786;28;20047;-57
2022/01/15 15:09:23;;;;;;;10.20;6.30;;;23.30;63.60;;;;;;5108879;28;20032;-59
2022/01/15 15:12:35;;;;;;;10.55;7.40;;;23.00;64.10;;;;;;5109814;28;20042;-57
2022/01/15 15:15:39;;;;;;;12.88;7.43;;;22.40;64.90;;;;;;5109784;28;20066;-58
2022/01/15 15:18:43;;;;;;;8.88;5.90;;;22.00;66.00;;;;;;5109589;28;20035;-59
2022/01/15 15:21:47;;;;;;;13.43;9.50;;;21.60;66.90;;;;;;5111318;28;20042;-57
2022/01/15 15:24:51;;;;;;;13.60;6.80;;;21.30;67.50;;;;;;5098341;22;20538;-56
2022/01/15 15:27:56;;;;;;;12.35;7.90;;;20.90;68.30;;;;;;5052662;28;20064;-53
2022/01/15 15:31:09;;;;;;;12.98;9.07;;;20.50;68.70;;;;;;5050988;28;20051;-52
2022/01/15 15:34:15;;;;;;;13.25;7.78;;;20.10;69.50;;;;;;5052916;28;20047;-55
2022/01/15 15:37:20;;;;;;;15.00;8.55;;;19.70;70.30;;;;;;5052614;28;20064;-54
2022/01/15 15:40:25;;;;;;;11.40;6.70;;;19.20;71.30;;;;;;5051836;28;20051;-55
2022/01/15 15:43:28;;;;;;;11.27;6.65;;;18.80;72.30;;;;;;5052859;28;20048;-55
2022/01/15 15:46:33;;;;;;;12.23;7.22;;;18.40;73.60;;;;;;5052836;28;20047;-53
2022/01/15 15:49:38;;;;;;;14.48;9.07;;;17.90;74.80;;;;;;5051573;28;20044;-56
2022/01/15 15:52:44;;;;;;;15.90;10.00;;;17.30;76.00;;;;;;5052419;28;20047;-55
2022/01/15 15:55:48;;;;;;;14.70;10.45;;;16.40;78.60;;;;;;5051810;28;20499;-53
2022/01/15 15:58:52;;;;;;;17.98;10.00;;;15.40;81.90;;;;;;5051428;28;20059;-57
2022/01/15 16:01:56;;;;;;;13.73;9.02;;;14.50;84.80;;;;;;5051798;28;20051;-54
2022/01/15 16:05:00;;;;;;;18.52;12.07;;;13.80;88.00;;;;;;5051907;28;20044;-52
2022/01/15 16:08:05;;;;;;;20.98;14.35;;;13.20;90.40;;;;;;5051333;28;20047;-54
2022/01/15 16:11:09;;;;;;;31.67;20.00;;;12.70;92.10;;;;;;5051476;28;20051;-53
2022/01/15 16:14:16;;;;;;;27.95;18.17;;;12.30;94.30;;;;;;5051332;28;20657;-52
2022/01/15 16:17:21;;;;;;;33.05;18.88;;;12.00;96.20;;;;;;5051544;28;20055;-56
2022/01/15 16:20:25;;;;;;;107.45;57.53;;;11.70;98.60;;;;;;5050554;28;20374;-54
2022/01/15 16:23:29;;;;;;;82.70;47.15;;;11.50;99.90;;;;;;5051397;28;20059;-55
2022/01/15 16:26:34;;;;;;;99.22;48.08;;;11.20;99.90;;;;;;5050941;28;20420;-57
2022/01/15 16:29:40;;;;;;;61.83;35.35;;;11.00;99.90;;;;;;5050674;28;20048;-55